Tiempo atmosférico en la estación meteorológica de Chipiona, Cádiz (10 m.)



Fecha
DESCASC
Temp. máxima en grados centígrados (hora)
DESCASC
Temp. mínima en grados centígrados (hora)
DESCASC
Temp. media en grados centígrados
DESCASC
Racha de viento máxima en m/sg (hora)
DESCASC
Velocidad máxima media en intervalos de 10 minutos(hora)
DESCASC
Precipitaciones diarias en mm
DESCASC
Precipitaciones de 00:00 a 06:00 en mm
DESCASC
Precipitaciones de 06:00 a 12:00 en mm
DESCASC
Precipitaciones de 12:00 a 18:00 en mm
DESCASC
Precipitaciones de 18:00 a 24:00 en mm
DESCASC
18-08-2019 28 (15:00) 19.3 (06:00) 23.6 7.78 (18:20) 5 (18:00) 0 0 0 0 0
17-08-2019 31.1 (17:50) 17.5 (07:50) 24.3 7.5 (18:00) 5 (18:30) 0 0 0 0 0
16-08-2019 28.8 (18:30) 19.6 (07:50) 24.2 6.94 (16:50) 4.72 (18:00) 0 0 0 0 0
15-08-2019 29.9 (15:20) 19.5 (00:00) 24.7 7.5 (17:20) 5 (16:20) 0 0 0 0 0
14-08-2019 31.3 (12:50) 18.9 (00:00) 25.1 8.06 (19:30) 5.28 (16:20) 0 0 0 0 0
13-08-2019 30.2 (18:40) 13.7 (00:00) 22 7.22 (16:20) 5.28 (16:50) 0 0 0 0 0
12-08-2019 27 (12:20) 19.9 (00:00) 23.4 10.83 (15:30) 6.94 (15:30) 0 0 0 0 0
11-08-2019 26.8 (16:20) 20.1 (00:00) 23.4 12.78 (16:30) 8.61 (17:30) 0 0 0 0 0
10-08-2019 28.2 (16:30) 20 (00:00) 24.1 9.17 (19:30) 6.39 (19:40) 0 0 0 0 0
09-08-2019 26.2 (15:40) 21.6 (00:00) 23.9 10.56 (16:30) 7.22 (16:30) 0 0 0 0 0
08-08-2019 28.9 (14:30) 17.3 (00:00) 23.1 8.61 (22:00) 6.67 (17:10) 0 0 0 0 0
07-08-2019 26.4 (13:30) 18.6 (00:00) 22.5 8.89 (17:30) 5.83 (17:40) 0 0 0 0 0
06-08-2019 30.9 (14:00) 18.2 (00:00) 24.6 8.33 (16:00) 5.83 (16:00) 0 0 0 0 0
05-08-2019 27.6 (15:30) 18.5 (00:00) 23.1 8.06 (16:50) 6.11 (16:40) 0 0 0 0 0
04-08-2019 27.8 (16:30) 19.2 (00:00) 23.5 7.78 (18:30) 5.28 (19:20) 0 0 0 0 0
03-08-2019 27.7 (16:40) 18.2 (00:00) 23 6.94 (12:10) 4.72 (19:00) 0 0 0 0 0
02-08-2019 27 (16:30) 17.3 (00:00) 22.1 9.44 (18:20) 6.39 (17:50) 0 0 0 0 0
01-08-2019 27.4 (18:00) 21.6 (00:00) 24.5 8.61 (20:00) 6.11 (20:00) 0 0 0 0 0
31-07-2019 29.5 (12:20) 17.4 (00:00) 23.4 8.06 (17:00) 5.28 (15:00) 0 0 0 0 0
30-07-2019 29.1 (18:20) 20.3 (00:00) 24.7 9.72 (03:50) 6.39 (15:20) 0 0 0 0 0
29-07-2019 27.2 (15:50) 19 (00:00) 23.1 10 (18:40) 7.22 (18:40) 0 0 0 0 0
28-07-2019 24.6 (15:50) 19.3 (00:00) 21.9 9.17 (16:20) 6.11 (16:50) 0 0 0 0 0
27-07-2019 24.8 (00:00) 19.9 (00:00) 22.3 11.94 (17:00) 8.33 (17:00) 0 0 0 0 0
26-07-2019 26.1 (15:00) 20.8 (00:00) 23.4 12.22 (19:30) 8.61 (18:40) 0 0 0 0 0
25-07-2019 27.9 (15:50) 20.1 (00:00) 24 8.61 (19:20) 5.56 (18:50) 0 0 0 0 0
24-07-2019 28.6 (15:30) 21.3 (00:00) 24.9 6.94 (17:00) 5 (16:20) 0 0 0 0 0
23-07-2019 30 (11:30) 23 (00:00) 26.5 9.17 (16:10) 5.28 (14:30) 0 0 0 0 0
22-07-2019 35.6 (16:00) 21.9 (00:00) 28.7 9.44 (16:20) 6.67 (16:20) 0 0 0 0 0

Gráficas

Temp. máximas Temp. mínimas Temp. medias Precipitaciones Rachas de viento máximas Velocidades máximas media en intervalos de 10 minutos

Datos horarios

Fecha y hora oficial Temperatura (ºC) Velocidad del viento (km/h) Dirección del viento Racha (km/h) Dirección de racha Precipitación (mm) Presión (hPa) Tendencia (hPa) Humedad (%)
2019-08-20 23:00:00 20.8 5 Oeste 15 Oeste 0 -- -- 77
2019-08-20 22:00:00 21.2 10 Oeste 17 Oeste 0 -- -- 76
2019-08-20 21:00:00 22.3 12 Oeste 22 Oeste 0 -- -- 74
2019-08-20 20:00:00 23.9 14 Sudoeste 24 Sudoeste 0 -- -- 61
2019-08-20 19:00:00 24.7 14 Sudoeste 22 Sudoeste 0 -- -- 62
2019-08-20 18:00:00 24.5 17 Oeste 25 Sudoeste 0 -- -- 68
2019-08-20 17:00:00 24.6 17 Oeste 24 Oeste 0 -- -- 67
2019-08-20 16:00:00 24.5 18 Oeste 24 Oeste 0 -- -- 64
2019-08-20 15:00:00 24.5 15 Oeste 22 Oeste 0 -- -- 65
2019-08-20 14:00:00 23.8 13 Oeste 20 Oeste 0 -- -- 64
2019-08-20 13:00:00 23.3 13 Oeste 22 Oeste 0 -- -- 65
2019-08-20 12:00:00 22.8 9 Oeste 15 Oeste 0 -- -- 65
2019-08-20 11:00:00 22.4 10 Oeste 16 Oeste 0 -- -- 66
2019-08-20 10:00:00 21.3 8 Oeste 12 Oeste 0 -- -- 69
2019-08-20 09:00:00 20.2 8 Noroeste 14 Oeste 0 -- -- 71
2019-08-20 08:00:00 16.3 6 Oeste 11 Noroeste 0 -- -- 94
2019-08-20 07:00:00 16.6 0 Calma 5 Este 0 -- -- 92
2019-08-20 06:00:00 17.3 0 Calma 6 Este 0 -- -- 89
2019-08-20 05:00:00 18.2 3 Sudeste 6 Noroeste 0 -- -- 82
2019-08-20 04:00:00 21.5 4 Noroeste 12 Noroeste 0 -- -- 67
2019-08-20 03:00:00 20.7 4 Noroeste 8 Norte 0 -- -- 74
2019-08-20 02:00:00 19.5 0 Calma 6 Sur 0 -- -- 88
2019-08-20 01:00:00 20.2 5 Sur 8 Sur 0 -- -- 88
2019-08-20 00:00:00 20.9 4 Sudeste 13 Sudoeste 0 -- -- 83
2019-08-19 23:00:00 21.9 6 Sudoeste 13 Sudoeste 0 -- -- 75
2019-08-19 22:00:00 22.1 6 Sudoeste 18 Oeste 0 -- -- 72
2019-08-19 21:00:00 23.1 13 Oeste 27 Sudoeste 0 -- -- 70
2019-08-19 20:00:00 23.8 18 Oeste 33 Sudoeste 0 -- -- 77
2019-08-19 19:00:00 25 24 Sudoeste 36 Sudoeste 0 -- -- 73
2019-08-19 18:00:00 25.5 21 Oeste 30 Oeste 0 -- -- 73
2019-08-19 17:00:00 26.1 20 Oeste 28 Sudoeste 0 -- -- 66
2019-08-19 16:00:00 26.5 18 Oeste 26 Oeste 0 -- -- 58
2019-08-19 15:00:00 26.1 16 Sudoeste 24 Oeste 0 -- -- 65
2019-08-19 14:00:00 25.2 17 Oeste 25 Sudoeste 0 -- -- 69
2019-08-19 13:00:00 26.1 13 Sudoeste 23 Sudoeste 0 -- -- 74
2019-08-19 12:00:00 26 11 Sudoeste 18 Sudoeste 0 -- -- 78
2019-08-19 11:00:00 25.5 5 Sudoeste 12 Noroeste 0 -- -- 80
2019-08-19 10:00:00 23.6 4 Sudeste 6 Sudeste 0 -- -- 92
2019-08-19 09:00:00 21 0 Calma 5 Este 0 -- -- 100
2019-08-19 08:00:00 20.4 3 Este 8 Sudeste 0 -- -- 99
2019-08-19 07:00:00 20.9 6 Sudeste 12 Sudeste 0 -- -- 99
2019-08-19 06:00:00 20.5 5 Sudeste 13 Sudeste 0 -- -- 98
2019-08-19 05:00:00 20.6 8 Sudeste 10 Sudeste 0 -- -- 97
2019-08-19 04:00:00 20.7 5 Sudeste 10 Sudeste 0 -- -- 95
2019-08-19 03:00:00 20.8 6 Sudeste 10 Sudeste 0 -- -- 92
2019-08-19 02:00:00 21.2 5 Sur 9 Sur 0 -- -- 91
2019-08-19 01:00:00 21.4 5 Sur 13 Sur 0 -- -- 90
2019-08-19 00:00:00 21.4 4 Sur 9 Sur 0 -- -- 88
2019-08-18 23:00:00 22.1 5 Sur 11 Sudoeste 0 -- -- 87
2019-08-18 22:00:00 22.8 6 Sudoeste 17 Sudoeste 0 -- -- 83
2019-08-18 21:00:00 24.1 10 Sudoeste 27 Sudoeste 0 -- -- 76
2019-08-18 20:00:00 26 13 Sudoeste 27 Sudoeste 0 -- -- 68
2019-08-18 19:00:00 27.1 14 Sudoeste 28 Sudoeste 0 -- -- 64
2019-08-18 18:00:00 27 18 Sudoeste 27 Sudoeste 0 -- -- 66
2019-08-18 17:00:00 27.2 14 Sudoeste 25 Sur 0 -- -- 64
2019-08-18 16:00:00 27.6 14 Sur 25 Sur 0 -- -- 63
2019-08-18 15:00:00 28 12 Sur 23 Sudoeste 0 -- -- 63
2019-08-18 14:00:00 27.4 14 Sur 23 Sur 0 -- -- 67
2019-08-18 13:00:00 26.6 13 Sur 26 Sur 0 -- -- 72
2019-08-18 12:00:00 26.1 15 Sur 26 Sudeste 0 -- -- 74
2019-08-18 11:00:00 24.8 10 Sur 20 Sudeste 0 -- -- 83
2019-08-18 10:00:00 22.8 11 Sur 18 Sur 0 -- -- 92
2019-08-18 09:00:00 21.1 6 Sudeste 12 Sudeste 0 -- -- 96
2019-08-18 08:00:00 19.8 6 Sudeste 9 Sudeste 0 -- -- 96
2019-08-18 07:00:00 19.3 4 Sudeste 9 Sudeste 0 -- -- 93
2019-08-18 06:00:00 19.3 6 Sudeste 8 Sudeste 0 -- -- 90
2019-08-18 05:00:00 19.6 6 Sudeste 10 Sudeste 0 -- -- 89
2019-08-18 04:00:00 20 4 Sur 6 Sur 0 -- -- 86
2019-08-18 03:00:00 20.3 4 Sur 8 Sur 0 -- -- 82
2019-08-18 02:00:00 20.6 4 Sur 6 Sur 0 -- -- 80
2019-08-18 01:00:00 21.2 3 Sur 6 Sudoeste 0 -- -- 79
2019-08-18 00:00:00 21.8 4 Sur 7 Sudoeste 0 -- -- 79
2019-08-17 23:00:00 22.7 5 Sudoeste 9 Oeste 0 -- -- 76
2019-08-17 22:00:00 23.5 5 Oeste 13 Oeste 0 -- -- 77
2019-08-17 21:00:00 24.6 8 Oeste 20 Oeste 0 -- -- 74
2019-08-17 20:00:00 25.6 15 Oeste 23 Oeste 0 -- -- 70
2019-08-17 19:00:00 27.3 18 Sudoeste 26 Sudoeste 0 -- -- 63
2019-08-17 18:00:00 30.8 17 Oeste 27 Oeste 0 -- -- 42
2019-08-17 17:00:00 30.6 15 Sudoeste 24 Oeste 0 -- -- 52
2019-08-17 16:00:00 29.8 14 Oeste 20 Oeste 0 -- -- 58
2019-08-17 15:00:00 28.7 14 Oeste 20 Oeste 0 -- -- 60
2019-08-17 14:00:00 28 13 Oeste 18 Oeste 0 -- -- 66
2019-08-17 13:00:00 27.4 11 Oeste 15 Oeste 0 -- -- 69
2019-08-17 12:00:00 26.4 7 Oeste 13 Oeste 0 -- -- 69
2019-08-17 11:00:00 25.9 9 Oeste 12 Oeste 0 -- -- 67
2019-08-17 10:00:00 24.9 4 Sur 6 Sur 0 -- -- 65
2019-08-17 09:00:00 20.7 0 Calma 7 Este 0 -- -- 82
2019-08-17 08:00:00 17.6 4 Este 5 Este 0 -- -- 85
2019-08-17 07:00:00 17.8 2 Sudeste 3 Sudeste 0 -- -- 83
2019-08-17 06:00:00 18.5 2 Este 4 Este 0 -- -- 82
2019-08-17 05:00:00 19.1 3 Sudeste 5 Sudeste 0 -- -- 82
2019-08-17 04:00:00 19.4 3 Sur 7 Sudeste 0 -- -- 83
2019-08-17 03:00:00 19.9 3 Este 6 Este 0 -- -- 82
2019-08-17 02:00:00 20.3 3 Este 6 Este 0 -- -- 82
2019-08-17 01:00:00 20.9 4 Sudeste 5 Sudeste 0 -- -- 84
2019-08-17 00:00:00 22 0 Calma 6 Oeste 0 -- -- 83
2019-08-16 23:00:00 23.1 5 Oeste 12 Oeste 0 -- -- 80
2019-08-16 22:00:00 23.6 6 Oeste 13 Oeste 0 -- -- 78
2019-08-16 21:00:00 25.1 7 Oeste 17 Oeste 0 -- -- 73
2019-08-16 20:00:00 26.7 12 Oeste 19 Oeste 0 -- -- 67
2019-08-16 19:00:00 27.9 16 Oeste 22 Oeste 0 -- -- 60
2019-08-16 18:00:00 28.3 17 Oeste 23 Oeste 0 -- -- 57
2019-08-16 17:00:00 28.5 14 Oeste 25 Oeste 0 -- -- 57
2019-08-16 16:00:00 28 14 Oeste 20 Oeste 0 -- -- 60
2019-08-16 15:00:00 27.8 12 Oeste 18 Oeste 0 -- -- 62
2019-08-16 14:00:00 26.9 12 Oeste 19 Oeste 0 -- -- 66
2019-08-16 13:00:00 27.8 14 Oeste 18 Oeste 0 -- -- 67
2019-08-16 12:00:00 26.9 8 Oeste 12 Oeste 0 -- -- 66
2019-08-16 11:00:00 26.2 8 Oeste 11 Oeste 0 -- -- 67
2019-08-16 10:00:00 25.9 5 Sudoeste 10 Sudoeste 0 -- -- 66
2019-08-16 09:00:00 22.2 3 Sur 10 Sudeste 0 -- -- 85
2019-08-16 08:00:00 19.7 3 Sudoeste 6 Sur 0 -- -- 90
2019-08-16 07:00:00 20.2 4 Sudeste 7 Sur 0 -- -- 87
2019-08-16 06:00:00 21 4 Sur 9 Sur 0 -- -- 86
2019-08-16 05:00:00 21.1 6 Sudeste 10 Sudeste 0 -- -- 74
2019-08-16 04:00:00 21 6 Sudeste 9 Sudeste 0 -- -- 79
2019-08-16 03:00:00 21.1 6 Sur 9 Sudeste 0 -- -- 82
2019-08-16 02:00:00 21.1 6 Sudeste 9 Sudeste 0 -- -- 84
2019-08-16 01:00:00 21.3 4 Sur 6 Sur 0 -- -- 83
2019-08-16 00:00:00 22 2 Sur 6 Oeste 0 -- -- 84
2019-08-15 23:00:00 22.8 3 Sudoeste 10 Sudoeste 0 -- -- 81
2019-08-15 22:00:00 23.5 5 Oeste 15 Oeste 0 -- -- 80
2019-08-15 21:00:00 25.2 8 Sudoeste 15 Oeste 0 -- -- 72
2019-08-15 20:00:00 26.3 10 Oeste 19 Oeste 0 -- -- 71
2019-08-15 19:00:00 27 13 Oeste 23 Oeste 0 -- -- 69
2019-08-15 18:00:00 27.2 15 Oeste 27 Oeste 0 -- -- 69
2019-08-15 17:00:00 27.7 17 Oeste 23 Oeste 0 -- -- 69
2019-08-15 16:00:00 27.7 17 Oeste 24 Oeste 0 -- -- 70
2019-08-15 15:00:00 29.8 15 Oeste 22 Sudoeste 0 -- -- 61
2019-08-15 14:00:00 28.4 15 Oeste 22 Oeste 0 -- -- 65
2019-08-15 13:00:00 28.3 13 Oeste 18 Oeste 0 -- -- 66
2019-08-15 12:00:00 29 5 Norte 11 Norte 0 -- -- 63
2019-08-15 11:00:00 26.7 5 Norte 10 Norte 0 -- -- 70
2019-08-15 10:00:00 25.1 5 Nordeste 9 Nordeste 0 -- -- 73
2019-08-15 09:00:00 22.3 5 Nordeste 8 Nordeste 0 -- -- 84
2019-08-15 08:00:00 20 4 Norte 7 Nordeste 0 -- -- 93
2019-08-15 07:00:00 19.6 3 Norte 5 Nordeste 0 -- -- 89
2019-08-15 06:00:00 20.2 2 Nordeste 7 Sudeste 0 -- -- 87
2019-08-15 05:00:00 21.3 5 Sudeste 9 Sudeste 0 -- -- 84
2019-08-15 04:00:00 21.5 6 Sur 12 Sudeste 0 -- -- 80
2019-08-15 03:00:00 21.5 9 Sudeste 14 Sudeste 0 -- -- 83
2019-08-15 02:00:00 21.3 4 Sur 14 Sur 0 -- -- 87
2019-08-15 01:00:00 21.5 7 Sudeste 10 Sudeste 0 -- -- 90
2019-08-15 00:00:00 21.8 6 Sudeste 12 Sudeste 0 -- -- 90
2019-08-14 23:00:00 22.2 5 Sur 10 Sudoeste 0 -- -- 89
2019-08-14 22:00:00 23 9 Sudoeste 18 Sudoeste 0 -- -- 87
2019-08-14 21:00:00 24.1 12 Oeste 27 Oeste 0 -- -- 83
2019-08-14 20:00:00 27.6 13 Sudoeste 29 Sudoeste 0 -- -- 70
2019-08-14 19:00:00 27.2 17 Oeste 24 Oeste 0 -- -- 71
2019-08-14 18:00:00 27.2 16 Oeste 25 Oeste 0 -- -- 73
2019-08-14 17:00:00 27.4 17 Oeste 25 Oeste 0 -- -- 72
2019-08-14 16:00:00 30.6 18 Oeste 25 Oeste 0 -- -- 58
2019-08-14 15:00:00 30.4 15 Oeste 22 Oeste 0 -- -- 61
2019-08-14 14:00:00 29.9 13 Oeste 21 Oeste 0 -- -- 62
2019-08-14 13:00:00 31.2 4 Noroeste 14 Este 0 -- -- 58
2019-08-14 12:00:00 29.2 6 Nordeste 14 Nordeste 0 -- -- 60
2019-08-14 11:00:00 26.9 8 Nordeste 17 Nordeste 0 -- -- 62
2019-08-14 10:00:00 24.4 8 Nordeste 14 Nordeste 0 -- -- 68
2019-08-14 09:00:00 21.6 4 Norte 11 Norte 0 -- -- 77
2019-08-14 08:00:00 19 2 Nordeste 5 Nordeste 0 -- -- 92
2019-08-14 07:00:00 19.1 2 Este 4 Este 0 -- -- 90
2019-08-14 06:00:00 19.5 2 Este 5 Este 0 -- -- 88
2019-08-14 05:00:00 20 0 Calma 5 Sur 0 -- -- 86
2019-08-14 04:00:00 20.6 3 Sudeste 8 Sudoeste -- -- -- 83
2019-08-14 03:00:00 20.5 4 Sur 9 Sudeste 0 -- -- 82
2019-08-14 02:00:00 19.8 4 Sudoeste 8 Sur 0 -- -- 83
2019-08-14 01:00:00 19.9 5 Sur 9 Sudeste 0 -- -- 79
2019-08-14 00:00:00 20.3 3 Sudeste 8 Sudeste 0 -- -- 78
2019-08-13 23:00:00 21.3 3 Sudeste 8 Sudeste 0 -- -- 77
2019-08-13 22:00:00 22.5 4 Sudoeste 17 Oeste 0 -- -- 75
2019-08-13 21:00:00 25.2 9 Sudoeste 20 Sudoeste 0 -- -- 61
2019-08-13 20:00:00 28.2 11 Sudoeste 21 Oeste 0 -- -- 51
2019-08-13 19:00:00 29 15 Oeste 23 Oeste 0 -- -- 49
2019-08-13 18:00:00 29.3 15 Oeste 24 Oeste 0 -- -- 53
2019-08-13 17:00:00 28.5 16 Oeste 26 Oeste 0 -- -- 60
2019-08-13 16:00:00 28.1 17 Oeste 24 Oeste 0 -- -- 60
2019-08-13 15:00:00 27.3 12 Oeste 19 Oeste 0 -- -- 59
2019-08-13 14:00:00 26.8 13 Oeste 19 Oeste 0 -- -- 56
2019-08-13 13:00:00 25.5 11 Noroeste 15 Noroeste 0 -- -- 58
2019-08-13 12:00:00 25 8 Oeste 13 Noroeste 0 -- -- 60
2019-08-13 11:00:00 24 7 Noroeste 11 Oeste 0 -- -- 59
2019-08-13 10:00:00 22.4 3 Oeste 5 Noroeste 0 -- -- 51
2019-08-13 09:00:00 17.5 3 Este 8 Este 0 -- -- 72
2019-08-13 08:00:00 13.7 2 Este 4 Nordeste 0 -- -- 85
2019-08-13 07:00:00 14 2 Este 5 Sudeste 0 -- -- 85
2019-08-13 06:00:00 14.4 4 Sudeste 6 Sudeste 0 -- -- 85
2019-08-13 05:00:00 15.3 3 Sudoeste 6 Sudeste 0 -- -- 83
2019-08-13 04:00:00 16 4 Sudeste 6 Sudeste 0 -- -- 83
2019-08-13 03:00:00 17.7 0 Calma 8 Este 0 -- -- 80
2019-08-13 02:00:00 19 2 Este 10 Este 0 -- -- 81
2019-08-13 01:00:00 19.8 0 Calma 6 Noroeste 0 -- -- 79
2019-08-13 00:00:00 21 5 Oeste 9 Sudoeste 0 -- -- 75
2019-08-12 23:00:00 21.4 6 Sudoeste 19 Sudoeste 0 -- -- 72
2019-08-12 22:00:00 21.8 12 Sudoeste 21 Sudoeste 0 -- -- 68
2019-08-12 21:00:00 22 13 Oeste 37 Oeste 0 -- -- 67
2019-08-12 20:00:00 22.9 23 Oeste 38 Oeste 0 -- -- 67
2019-08-12 19:00:00 24.4 24 Oeste 36 Oeste 0 -- -- 63
2019-08-12 18:00:00 26.2 23 Oeste 32 Oeste 0 -- -- 54
2019-08-12 17:00:00 27 23 Oeste 34 Oeste 0 -- -- 49
2019-08-12 16:00:00 26.5 21 Oeste 39 Oeste 0 -- -- 54
2019-08-12 15:00:00 25.8 22 Oeste 32 Oeste 0 -- -- 57
2019-08-12 14:00:00 25 21 Oeste 28 Oeste 0 -- -- 58
2019-08-12 13:00:00 24.7 15 Oeste 24 Norte 0 -- -- 59
2019-08-12 12:00:00 26.4 11 Norte 24 Norte 0 -- -- 39
2019-08-12 11:00:00 23.4 9 Noroeste 20 Noroeste 0 -- -- 51
2019-08-12 10:00:00 20.5 8 Norte 19 Noroeste 0 -- -- 62
2019-08-12 09:00:00 20.1 9 Noroeste 21 Noroeste 0 -- -- 65
2019-08-12 08:00:00 19.9 8 Noroeste 21 Noroeste 0 -- -- 67
2019-08-12 07:00:00 20.3 10 Noroeste 25 Noroeste 0 -- -- 62
2019-08-12 06:00:00 20.7 12 Noroeste 26 Noroeste 0 -- -- 59
2019-08-12 05:00:00 21.2 12 Noroeste 28 Noroeste 0 -- -- 58
2019-08-12 04:00:00 21.7 15 Noroeste 27 Noroeste 0 -- -- 61
2019-08-12 03:00:00 22.3 15 Noroeste 26 Noroeste 0 -- -- 61
2019-08-12 02:00:00 23.1 15 Noroeste 26 Noroeste 0 -- -- 59
2019-08-12 01:00:00 23.2 14 Noroeste 24 Noroeste 0 -- -- 63
2019-08-12 00:00:00 23.6 11 Noroeste 22 Noroeste 0 -- -- 61
2019-08-11 23:00:00 24.3 13 Noroeste 26 Oeste 0 -- -- 57
2019-08-11 22:00:00 23.6 18 Oeste 36 Oeste 0 -- -- 66
2019-08-11 21:00:00 23.3 21 Oeste 40 Oeste 0 -- -- 67
2019-08-11 20:00:00 24.2 26 Oeste 39 Oeste 0 -- -- 64
2019-08-11 19:00:00 24.4 23 Oeste 42 Sudoeste 0 -- -- 64
2019-08-11 18:00:00 25.3 29 Oeste 43 Sudoeste 0 -- -- 59
2019-08-11 17:00:00 25.2 27 Oeste 46 Oeste 0 -- -- 62
2019-08-11 16:00:00 26.4 23 Oeste 35 Oeste 0 -- -- 55
2019-08-11 15:00:00 25.5 21 Oeste 32 Oeste 0 -- -- 57
2019-08-11 14:00:00 25.6 22 Oeste 31 Oeste 0 -- -- 55
2019-08-11 13:00:00 24.9 20 Oeste 31 Oeste 0 -- -- 55
2019-08-11 12:00:00 24.2 15 Oeste 26 Noroeste 0 -- -- 58
2019-08-11 11:00:00 22.4 15 Noroeste 27 Noroeste 0 -- -- 59
2019-08-11 10:00:00 21.9 11 Noroeste 26 Noroeste 0 -- -- 62
2019-08-11 09:00:00 21.2 12 Noroeste 26 Noroeste 0 -- -- 63
2019-08-11 08:00:00 20.2 11 Noroeste 27 Noroeste 0 -- -- 63
2019-08-11 07:00:00 20.5 14 Noroeste 23 Noroeste 0 -- -- 64
2019-08-11 06:00:00 21.4 14 Noroeste 28 Noroeste 0 -- -- 66
2019-08-11 05:00:00 22 7 Norte 19 Norte 0 -- -- 63
2019-08-11 04:00:00 22.6 12 Noroeste 32 Noroeste 0 -- -- 64
2019-08-11 03:00:00 23 17 Noroeste 33 Noroeste 0 -- -- 66
2019-08-11 02:00:00 23.4 20 Noroeste 33 Noroeste 0 -- -- 67
2019-08-11 01:00:00 23.7 17 Oeste 31 Oeste 0 -- -- 72
2019-08-11 00:00:00 24 14 Oeste 22 Oeste 0 -- -- 76
2019-08-10 23:00:00 22.7 6 Sudoeste 16 Oeste 0 -- -- 80
2019-08-10 22:00:00 23.5 11 Sudoeste 24 Sudoeste 0 -- -- 74
2019-08-10 21:00:00 24.1 14 Oeste 31 Oeste 0 -- -- 67
2019-08-10 20:00:00 24.7 20 Oeste 33 Oeste 0 -- -- 65
2019-08-10 19:00:00 25.7 21 Oeste 32 Oeste 0 -- -- 66
2019-08-10 18:00:00 27 19 Oeste 27 Sudoeste 0 -- -- 65
2019-08-10 17:00:00 27.6 22 Oeste 29 Oeste 0 -- -- 63
2019-08-10 16:00:00 27.7 21 Oeste 30 Oeste 0 -- -- 63
2019-08-10 15:00:00 27.5 20 Oeste 29 Oeste 0 -- -- 64
2019-08-10 14:00:00 27 18 Oeste 23 Oeste 0 -- -- 68
2019-08-10 13:00:00 26.5 18 Oeste 24 Oeste 0 -- -- 70
2019-08-10 12:00:00 26 12 Oeste 17 Oeste 0 -- -- 73
2019-08-10 11:00:00 24.8 8 Oeste 19 Noroeste 0 -- -- 77
2019-08-10 10:00:00 23.8 9 Noroeste 19 Noroeste 0 -- -- 77
2019-08-10 09:00:00 22.6 5 Noroeste 13 Noroeste 0 -- -- 81
2019-08-10 08:00:00 21 5 Noroeste 10 Norte 0 -- -- 87
2019-08-10 07:00:00 20 4 Nordeste 8 Norte 0 -- -- 96
2019-08-10 06:00:00 20.3 3 Noroeste 7 Noroeste 0 -- -- 95
2019-08-10 05:00:00 20.6 0 Calma 9 Sur 0 -- -- 95
2019-08-10 04:00:00 20.9 6 Sur 10 Este 0 -- -- 95
2019-08-10 03:00:00 21.6 4 Sudeste 12 Oeste 0 -- -- 92
2019-08-10 02:00:00 22.6 5 Oeste 12 Oeste 0 -- -- 91
2019-08-10 01:00:00 22.9 9 Oeste 18 Oeste 0 -- -- 90
2019-08-10 00:00:00 22.7 6 Oeste 20 Oeste 0 -- -- 92
2019-08-09 23:00:00 22.6 13 Oeste 26 Sudoeste 0 -- -- 94
2019-08-09 22:00:00 22.8 18 Oeste 27 Sudoeste 0 -- -- 93
2019-08-09 21:00:00 23.6 18 Oeste 30 Oeste 0 -- -- 91
2019-08-09 20:00:00 24.4 22 Oeste 32 Sudoeste 0 -- -- 88
2019-08-09 19:00:00 24.8 23 Oeste 33 Oeste 0 -- -- 86
2019-08-09 18:00:00 25.1 22 Sudoeste 34 Sudoeste 0 -- -- 82
2019-08-09 17:00:00 25.7 23 Sudoeste 38 Oeste 0 -- -- 79
2019-08-09 16:00:00 25.8 23 Oeste 31 Sudoeste 0 -- -- 80
2019-08-09 15:00:00 26.1 19 Sudoeste 27 Sudoeste 0 -- -- 74
2019-08-09 14:00:00 25.7 19 Oeste 26 Oeste 0 -- -- 76
2019-08-09 13:00:00 25.2 18 Oeste 25 Oeste 0 -- -- 82
2019-08-09 12:00:00 24.6 14 Oeste 20 Oeste 0 -- -- 84
2019-08-09 11:00:00 23.7 12 Oeste 18 Oeste 0 -- -- 87
2019-08-09 10:00:00 22.3 12 Oeste 19 Sudoeste 0 -- -- 93
2019-08-09 09:00:00 22.7 11 Oeste 21 Oeste 0 -- -- 93
2019-08-09 08:00:00 21.8 11 Oeste 19 Oeste 0 -- -- 95
2019-08-09 07:00:00 21.6 9 Oeste 17 Oeste 0 -- -- 95
2019-08-09 06:00:00 21.7 10 Oeste 16 Oeste 0 -- -- 94
2019-08-09 05:00:00 21.7 11 Oeste 18 Oeste 0 -- -- 94
2019-08-09 04:00:00 21.9 12 Oeste 23 Oeste 0 -- -- 94
2019-08-09 03:00:00 21.9 14 Oeste 26 Oeste 0 -- -- 94
2019-08-09 02:00:00 21.9 15 Oeste 31 Oeste 0 -- -- 93
2019-08-09 01:00:00 22.1 19 Oeste 33 Oeste 0 -- -- 91
2019-08-09 00:00:00 22.2 20 Oeste 30 Sudoeste 0 -- -- 91
2019-08-08 23:00:00 22.2 16 Oeste 27 Sudoeste 0 -- -- 91
2019-08-08 22:00:00 22.3 18 Oeste 31 Oeste 0 -- -- 89
2019-08-08 21:00:00 23.4 17 Oeste 24 Oeste 0 -- -- 85
2019-08-08 20:00:00 24.9 14 Oeste 27 Sudoeste 0 -- -- 77
2019-08-08 19:00:00 25.7 17 Oeste 28 Oeste 0 -- -- 73
2019-08-08 18:00:00 26.5 19 Oeste 30 Oeste 0 -- -- 72
2019-08-08 17:00:00 26.8 20 Oeste 30 Sudoeste 0 -- -- 70
2019-08-08 16:00:00 27.5 22 Oeste 30 Oeste 0 -- -- 64
2019-08-08 15:00:00 28.3 18 Oeste 24 Oeste 0 -- -- 66
2019-08-08 14:00:00 28.3 14 Oeste 17 Oeste 0 -- -- 68
2019-08-08 13:00:00 27.3 14 Oeste 17 Oeste 0 -- -- 68
2019-08-08 12:00:00 27.2 10 Sudoeste 14 Sudoeste 0 -- -- 69
2019-08-08 11:00:00 26.1 4 Oeste 8 Noroeste 0 -- -- 66
2019-08-08 10:00:00 23.9 4 Noroeste 9 Norte 0 -- -- 70
2019-08-08 09:00:00 20.6 0 Calma 4 Sudeste 0 -- -- 96
2019-08-08 08:00:00 17.4 4 Este 5 Este 0 -- -- 96
2019-08-08 07:00:00 17.8 3 Nordeste 5 Este 0 -- -- 95
2019-08-08 06:00:00 18.3 3 Sudeste 7 Este 0 -- -- 95
2019-08-08 05:00:00 18.9 0 Calma 6 Sudeste 0 -- -- 94
2019-08-08 04:00:00 19.6 3 Sur 8 Sudeste 0 -- -- 91
2019-08-08 03:00:00 20.9 4 Sudeste 9 Oeste 0 -- -- 87
2019-08-08 02:00:00 22.5 7 Oeste 19 Oeste 0 -- -- 85
2019-08-08 01:00:00 22.9 11 Oeste 17 Oeste 0 -- -- 85
2019-08-08 00:00:00 22.5 7 Oeste 15 Sudoeste 0 -- -- 85
2019-08-07 23:00:00 23 8 Oeste 18 Oeste 0 -- -- 85
2019-08-07 22:00:00 23 11 Oeste 22 Oeste 0 -- -- 85
2019-08-07 21:00:00 23.2 15 Oeste 24 Oeste 0 -- -- 81
2019-08-07 20:00:00 24 18 Oeste 31 Oeste 0 -- -- 81
2019-08-07 19:00:00 24.9 20 Oeste 30 Oeste 0 -- -- 77
2019-08-07 18:00:00 25.4 18 Oeste 32 Oeste 0 -- -- 76
2019-08-07 17:00:00 25.8 17 Oeste 27 Oeste 0 -- -- 74
2019-08-07 16:00:00 26 18 Oeste 27 Oeste 0 -- -- 75
2019-08-07 15:00:00 26.1 15 Oeste 24 Oeste 0 -- -- 71
2019-08-07 14:00:00 25.8 17 Oeste 22 Oeste 0 -- -- 75
2019-08-07 13:00:00 25.4 12 Oeste 21 Oeste 0 -- -- 76
2019-08-07 12:00:00 24.6 12 Oeste 18 Oeste 0 -- -- 78
2019-08-07 11:00:00 24.9 8 Oeste 13 Oeste 0 -- -- 77
2019-08-07 10:00:00 23.6 5 Oeste 9 Oeste 0 -- -- 84
2019-08-07 09:00:00 21.4 5 Sudeste 10 Sudeste 0 -- -- 99
2019-08-07 08:00:00 18.7 5 Este 8 Sudeste 0 -- -- 97
2019-08-07 07:00:00 19 3 Sudeste 9 Este 0 -- -- 96
2019-08-07 06:00:00 19.5 4 Sudeste 6 Sudeste 0 -- -- 95
2019-08-07 05:00:00 19.7 5 Sudeste 9 Sudeste 0 -- -- 94
2019-08-07 04:00:00 20.3 3 Sudeste 7 Sur 0 -- -- 94
2019-08-07 03:00:00 21 5 Sur 10 Sur 0 -- -- 95
2019-08-07 02:00:00 21.1 5 Sur 18 Sur 0 -- -- 92
2019-08-07 01:00:00 20.9 7 Sur 13 Sudeste 0 -- -- 90
2019-08-07 00:00:00 21.1 5 Sur 12 Sur 0 -- -- 84
2019-08-06 23:00:00 22.1 4 Sur 12 Sudoeste 0 -- -- 81
2019-08-06 22:00:00 23 10 Sudoeste 19 Oeste 0 -- -- 80
2019-08-06 21:00:00 24.2 13 Oeste 21 Oeste 0 -- -- 77
2019-08-06 20:00:00 25.2 13 Oeste 24 Oeste 0 -- -- 70
2019-08-06 19:00:00 25.3 17 Oeste 23 Oeste 0 -- -- 71
2019-08-06 18:00:00 25.3 16 Oeste 27 Oeste 0 -- -- 72
2019-08-06 17:00:00 25.3 21 Oeste 27 Oeste 0 -- -- 72
2019-08-06 16:00:00 25.7 21 Sudoeste 30 Sudoeste 0 -- -- 77
2019-08-06 15:00:00 28.4 16 Oeste 23 Oeste 0 -- -- 53
2019-08-06 14:00:00 30.9 12 Sudoeste 17 Sudoeste 0 -- -- 37
2019-08-06 13:00:00 28.7 4 Sur 12 Sudeste 0 -- -- 46
2019-08-06 12:00:00 25.2 7 Oeste 13 Oeste 0 -- -- 77
2019-08-06 11:00:00 23.6 8 Oeste 14 Sudoeste 0 -- -- 85
2019-08-06 10:00:00 22.8 9 Sudoeste 14 Sudoeste 0 -- -- 86
2019-08-06 09:00:00 20.8 8 Sur 23 Sur 0 -- -- 98
2019-08-06 08:00:00 19.6 10 Sudeste 16 Sudeste 0 -- -- 100
2019-08-06 07:00:00 19.3 7 Sudeste 14 Sudeste 0 -- -- 99
2019-08-06 06:00:00 19.3 8 Sudeste 16 Sudeste 0 -- -- 98
2019-08-06 05:00:00 18.6 5 Sudeste 10 Sudeste 0 -- -- 97
2019-08-06 04:00:00 18.2 6 Sudeste 9 Sudeste 0 -- -- 95
2019-08-06 03:00:00 18.8 5 Sudeste 10 Sudeste 0 -- -- 94
2019-08-06 02:00:00 19.5 7 Sudeste 10 Sur 0 -- -- 94
2019-08-06 01:00:00 19.4 4 Sudeste 9 Sudeste 0 -- -- 90
2019-08-06 00:00:00 20.1 5 Sur 10 Sur 0 -- -- 87
2019-08-05 23:00:00 20.8 4 Sudeste 8 Sur 0 -- -- 83
2019-08-05 22:00:00 22 4 Sur 15 Sudoeste 0 -- -- 78
2019-08-05 21:00:00 24 9 Sudoeste 22 Sudoeste 0 -- -- 72
2019-08-05 20:00:00 25.8 15 Sudoeste 22 Sudoeste 0 -- -- 61
2019-08-05 19:00:00 26.2 14 Sudoeste 25 Sudoeste 0 -- -- 63
2019-08-05 18:00:00 25.6 18 Oeste 28 Oeste 0 -- -- 67
2019-08-05 17:00:00 25.7 21 Oeste 29 Oeste 0 -- -- 65
2019-08-05 16:00:00 27.1 19 Oeste 26 Sudoeste 0 -- -- 58
2019-08-05 15:00:00 26.7 17 Oeste 23 Oeste 0 -- -- 65
2019-08-05 14:00:00 25.9 16 Oeste 21 Oeste 0 -- -- 70
2019-08-05 13:00:00 25.6 13 Oeste 17 Oeste 0 -- -- 70
2019-08-05 12:00:00 25.9 8 Oeste 12 Oeste 0 -- -- 68
2019-08-05 11:00:00 24.7 5 Noroeste 12 Noroeste 0 -- -- 65
2019-08-05 10:00:00 23.5 5 Noroeste 9 Noroeste 0 -- -- 70
2019-08-05 09:00:00 21.3 3 Este 6 Este 0 -- -- 93
2019-08-05 08:00:00 18.6 0 Calma 8 Sur 0 -- -- 96
2019-08-05 07:00:00 18.6 5 Sur 6 Sur 0 -- -- 95
2019-08-05 06:00:00 18.7 4 Sudeste 6 Sudeste 0 -- -- 91
2019-08-05 05:00:00 20.1 3 Sudeste 8 Noroeste 0 -- -- 86
2019-08-05 04:00:00 22.4 7 Noroeste 10 Oeste 0 -- -- 85
2019-08-05 03:00:00 22.3 7 Oeste 10 Oeste 0 -- -- 84
2019-08-05 02:00:00 22.1 6 Oeste 9 Oeste 0 -- -- 82
2019-08-05 01:00:00 22.4 5 Oeste 12 Sur 0 -- -- 79
2019-08-05 00:00:00 22.5 5 Sur 10 Sudoeste 0 -- -- 78
2019-08-04 23:00:00 23.2 4 Oeste 13 Oeste 0 -- -- 76
2019-08-04 22:00:00 23.5 9 Oeste 17 Sudoeste 0 -- -- 78
2019-08-04 21:00:00 24.6 14 Oeste 21 Oeste 0 -- -- 74
2019-08-04 20:00:00 25.4 15 Oeste 27 Sudoeste 0 -- -- 72
2019-08-04 19:00:00 25.8 18 Sudoeste 28 Sudoeste 0 -- -- 71
2019-08-04 18:00:00 27.1 17 Sudoeste 26 Sudoeste 0 -- -- 62
2019-08-04 17:00:00 27.3 14 Sudoeste 23 Sudoeste 0 -- -- 65
2019-08-04 16:00:00 27.1 15 Sudoeste 24 Sudoeste 0 -- -- 63
2019-08-04 15:00:00 26.8 13 Sudoeste 20 Sudoeste 0 -- -- 64
2019-08-04 14:00:00 25.2 13 Oeste 20 Oeste 0 -- -- 75
2019-08-04 13:00:00 24.7 14 Oeste 19 Oeste 0 -- -- 77
2019-08-04 12:00:00 25 6 Sur 16 Sudoeste 0 -- -- 77
2019-08-04 11:00:00 23.5 8 Sudoeste 16 Sudoeste 0 -- -- 83
2019-08-04 10:00:00 22.2 10 Sudoeste 18 Sur 0 -- -- 91
2019-08-04 09:00:00 21.1 9 Sur 17 Sur 0 -- -- 98
2019-08-04 08:00:00 20 5 Sur 10 Sur 0 -- -- 99
2019-08-04 07:00:00 20 5 Sur 10 Sur 0 -- -- 99
2019-08-04 06:00:00 20.2 5 Sur 10 Sudeste 0 -- -- 98
2019-08-04 05:00:00 20.3 8 Sudeste 11 Sudeste 0 -- -- 97
2019-08-04 04:00:00 20.3 6 Sur 11 Sur 0 -- -- 96
2019-08-04 03:00:00 19.5 5 Sur 12 Sur 0 -- -- 93
2019-08-04 02:00:00 19.4 7 Sudeste 12 Sudeste 0 -- -- 92
2019-08-04 01:00:00 19.5 6 Sudeste 8 Sudeste 0 -- -- 90
2019-08-04 00:00:00 20.3 5 Sur 8 Sudoeste 0 -- -- 88
2019-08-03 23:00:00 21.4 6 Sudoeste 10 Sudoeste 0 -- -- 85
2019-08-03 22:00:00 22.2 6 Sudoeste 17 Sudoeste 0 -- -- 86
2019-08-03 21:00:00 23.5 13 Oeste 20 Sudoeste 0 -- -- 83
2019-08-03 20:00:00 24.3 13 Oeste 23 Oeste 0 -- -- 72
2019-08-03 19:00:00 25 17 Sudoeste 22 Oeste 0 -- -- 73
2019-08-03 18:00:00 27.4 10 Sudoeste 18 Sudoeste 0 -- -- 64
2019-08-03 17:00:00 27.6 10 Sudoeste 19 Sudoeste 0 -- -- 60
2019-08-03 16:00:00 26.8 10 Sudoeste 18 Sudoeste 0 -- -- 66
2019-08-03 15:00:00 26.6 11 Sur 22 Sudoeste 0 -- -- 65
2019-08-03 14:00:00 25.5 13 Sudoeste 25 Sur 0 -- -- 72
2019-08-03 13:00:00 25.3 13 Sur 25 Sur 0 -- -- 74
2019-08-03 12:00:00 25 14 Sur 23 Sur 0 -- -- 77
2019-08-03 11:00:00 23.7 12 Sur 21 Sur 0 -- -- 83
2019-08-03 10:00:00 21.2 12 Sur 24 Sudeste 0 -- -- 92
2019-08-03 09:00:00 20.2 12 Sur 19 Sudeste 0 -- -- 99
2019-08-03 08:00:00 18.4 5 Sudeste 6 Sudeste 0 -- -- 99
2019-08-03 07:00:00 18.7 5 Sudeste 8 Sudeste 0 -- -- 98
2019-08-03 06:00:00 19.1 5 Sudeste 9 Sudeste 0 -- -- 98
2019-08-03 05:00:00 19.6 6 Sudeste 12 Sur 0 -- -- 97
2019-08-03 04:00:00 19.6 6 Sur 13 Sur 0 -- -- 96
2019-08-03 03:00:00 19.3 8 Sur 14 Sur 0 -- -- 95
2019-08-03 02:00:00 19.4 6 Sur 13 Sudeste 0 -- -- 93
2019-08-03 01:00:00 18.2 5 Sur 8 Sudeste 0 -- -- 89
2019-08-03 00:00:00 19 4 Sudeste 5 Sudeste 0 -- -- 85
2019-08-02 23:00:00 20.5 2 Sur 6 Oeste 0 -- -- 82
2019-08-02 22:00:00 22.1 5 Oeste 16 Oeste 0 -- -- 79
2019-08-02 21:00:00 23.6 12 Oeste 25 Oeste 0 -- -- 71
2019-08-02 20:00:00 24.8 16 Oeste 28 Sudoeste 0 -- -- 71
2019-08-02 19:00:00 26.2 19 Sudoeste 34 Sudoeste 0 -- -- 61
2019-08-02 18:00:00 26.5 23 Oeste 32 Oeste 0 -- -- 58
2019-08-02 17:00:00 26.5 22 Oeste 29 Sudoeste 0 -- -- 62
2019-08-02 16:00:00 26.5 17 Oeste 26 Oeste 0 -- -- 64
2019-08-02 15:00:00 26.2 15 Oeste 23 Sudoeste 0 -- -- 65
2019-08-02 14:00:00 26 13 Oeste 23 Oeste 0 -- -- 65
2019-08-02 13:00:00 25 15 Oeste 21 Oeste 0 -- -- 61
2019-08-02 12:00:00 24 10 Oeste 17 Oeste 0 -- -- 69
2019-08-02 11:00:00 24.3 8 Oeste 13 Oeste 0 -- -- 66
2019-08-02 10:00:00 23.6 4 Norte 10 Oeste 0 -- -- 68
2019-08-02 09:00:00 20.7 0 Calma 9 Este 0 -- -- 82
2019-08-02 08:00:00 17.3 2 Este 6 Este 0 -- -- 88
2019-08-02 07:00:00 18 3 Este 6 Este 0 -- -- 87
2019-08-02 06:00:00 19.9 0 Calma 9 Noroeste 0 -- -- 82
2019-08-02 05:00:00 22.1 6 Noroeste 10 Noroeste 0 -- -- 77
2019-08-02 04:00:00 21.6 6 Oeste 11 Oeste 0 -- -- 81
2019-08-02 03:00:00 21.2 5 Oeste 10 Oeste 0 -- -- 80
2019-08-02 02:00:00 22.5 6 Oeste 13 Oeste 0 -- -- 78
2019-08-02 01:00:00 22.8 9 Oeste 16 Oeste 0 -- -- 80
2019-08-02 00:00:00 23.4 7 Oeste 19 Oeste 0 -- -- 74
2019-08-01 23:00:00 23.7 13 Oeste 22 Oeste 0 -- -- 70
2019-08-01 22:00:00 23.7 14 Oeste 27 Oeste 0 -- -- 71
2019-08-01 21:00:00 24 16 Oeste 30 Oeste 0 -- -- 74
2019-08-01 20:00:00 25.3 22 Oeste 31 Oeste 0 -- -- 76
2019-08-01 19:00:00 26.4 18 Oeste 27 Oeste 0 -- -- 77
2019-08-01 18:00:00 27.4 17 Oeste 29 Oeste 0 -- -- 75
2019-08-01 17:00:00 27.2 17 Oeste 28 Oeste 0 -- -- 76
2019-08-01 16:00:00 26.7 19 Oeste 27 Oeste 0 -- -- 75
2019-08-01 15:00:00 26.6 21 Oeste 27 Oeste 0 -- -- 73
2019-08-01 14:00:00 26.9 19 Oeste 29 Oeste 0 -- -- 74
2019-08-01 13:00:00 26.2 18 Oeste 23 Oeste 0 -- -- 75
2019-08-01 12:00:00 26.2 13 Noroeste 21 Oeste 0 -- -- 71
2019-08-01 11:00:00 25.6 8 Noroeste 15 Noroeste 0 -- -- 69
2019-08-01 10:00:00 25 6 Noroeste 12 Norte 0 -- -- 79
2019-08-01 09:00:00 24.2 4 Noroeste 8 Noroeste 0 -- -- 86
2019-08-01 08:00:00 22.3 5 Este 12 Este 0 -- -- 88
2019-08-01 07:00:00 23.2 6 Sudeste 23 Sudeste 0 -- -- 86
2019-08-01 06:00:00 23.3 13 Sudeste 19 Sudeste 0 -- -- 87
2019-08-01 05:00:00 21.9 8 Sudeste 11 Sudeste 0 -- -- 92
2019-08-01 04:00:00 21.9 0 Calma 5 Sudeste 0 -- -- 88
2019-08-01 03:00:00 22.9 0 Calma 8 Oeste 0 -- -- 87
2019-08-01 02:00:00 23 4 Oeste 15 Oeste 0 -- -- 86
2019-08-01 01:00:00 23.4 9 Oeste 17 Oeste 0 -- -- 86
2019-08-01 00:00:00 23.3 8 Oeste 14 Oeste 0 -- -- 88
2019-07-31 23:00:00 23.1 5 Oeste 14 Oeste 0 -- -- 89
2019-07-31 22:00:00 23.4 5 Oeste 21 Oeste 0 -- -- 87
2019-07-31 21:00:00 24.7 13 Oeste 27 Oeste 0 -- -- 80
2019-07-31 20:00:00 25.3 18 Oeste 29 Oeste 0 -- -- 76
2019-07-31 19:00:00 26 17 Oeste 26 Oeste 0 -- -- 71
2019-07-31 18:00:00 26.3 18 Oeste 28 Oeste 0 -- -- 69
2019-07-31 17:00:00 26.6 19 Oeste 29 Oeste 0 -- -- 69
2019-07-31 16:00:00 26.8 18 Oeste 28 Oeste 0 -- -- 69
2019-07-31 15:00:00 27.3 19 Oeste 27 Oeste 0 -- -- 67
2019-07-31 14:00:00 27.3 15 Oeste 25 Oeste 0 -- -- 66
2019-07-31 13:00:00 27.5 16 Oeste 23 Oeste 0 -- -- 67
2019-07-31 12:00:00 28.9 12 Sur 24 Oeste 0 -- -- 62
2019-07-31 11:00:00 27.8 11 Sudoeste 20 Sudeste 0 -- -- 65
2019-07-31 10:00:00 25.7 5 Este 8 Este 0 -- -- 66
2019-07-31 09:00:00 21.3 0 Calma 4 Nordeste 0 -- -- 78
2019-07-31 08:00:00 17.5 2 Sudeste 6 Sudeste 0 -- -- 81
2019-07-31 07:00:00 17.5 2 Sur 5 Este 0 -- -- 77
2019-07-31 06:00:00 18 4 Este 5 Este 0 -- -- 72
2019-07-31 05:00:00 18.4 3 Sudeste 8 Sudeste 0 -- -- 72
2019-07-31 04:00:00 18.8 2 Norte 7 Este 0 -- -- 67
2019-07-31 03:00:00 21 3 Este 10 Norte 0 -- -- 58
2019-07-31 02:00:00 23.3 5 Norte 11 Norte 0 -- -- 54
2019-07-31 01:00:00 23.7 8 Noroeste 14 Oeste 0 -- -- 65
2019-07-31 00:00:00 23.7 8 Oeste 14 Oeste 0 -- -- 67
2019-07-30 23:00:00 24.6 10 Oeste 23 Oeste 0 -- -- 60
2019-07-30 22:00:00 24.4 14 Oeste 22 Oeste 0 -- -- 62
2019-07-30 21:00:00 25.5 15 Oeste 24 Oeste 0 -- -- 59
2019-07-30 20:00:00 26.9 16 Oeste 31 Oeste 0 -- -- 57
2019-07-30 19:00:00 28.3 19 Oeste 30 Oeste 0 -- -- 49
2019-07-30 18:00:00 28.8 18 Oeste 31 Oeste 0 -- -- 47
2019-07-30 17:00:00 28.4 19 Oeste 32 Oeste 0 -- -- 51
2019-07-30 16:00:00 28.2 21 Oeste 31 Oeste 0 -- -- 50
2019-07-30 15:00:00 27.2 21 Oeste 29 Oeste 0 -- -- 56
2019-07-30 14:00:00 26.4 18 Oeste 26 Oeste 0 -- -- 56
2019-07-30 13:00:00 25.8 14 Oeste 20 Oeste 0 -- -- 59
2019-07-30 12:00:00 24.5 13 Noroeste 22 Noroeste 0 -- -- 65
2019-07-30 11:00:00 23.6 9 Noroeste 15 Noroeste 0 -- -- 64
2019-07-30 10:00:00 22.2 6 Noroeste 19 Norte 0 -- -- 59
2019-07-30 09:00:00 21.4 6 Noroeste 20 Noroeste 0 -- -- 66
2019-07-30 08:00:00 20.3 8 Noroeste 19 Noroeste 0 -- -- 70
2019-07-30 07:00:00 20.6 8 Noroeste 21 Norte 0 -- -- 67
2019-07-30 06:00:00 21.1 10 Noroeste 30 Noroeste 0 -- -- 65
2019-07-30 05:00:00 21.7 19 Noroeste 34 Noroeste 0 -- -- 63
2019-07-30 04:00:00 22.3 18 Noroeste 35 Noroeste 0 -- -- 66
2019-07-30 03:00:00 23.2 18 Noroeste 29 Oeste 0 -- -- 66
2019-07-30 02:00:00 24.1 16 Noroeste 27 Oeste 0 -- -- 62
2019-07-30 01:00:00 23.7 11 Noroeste 19 Noroeste 0 -- -- 68
2019-07-30 00:00:00 23 6 Noroeste 24 Oeste 0 -- -- 79
2019-07-29 23:00:00 23.2 13 Oeste 23 Sudoeste 0 -- -- 82
2019-07-29 22:00:00 23.3 15 Sudoeste 30 Oeste 0 -- -- 79
2019-07-29 21:00:00 23.9 19 Oeste 35 Sudoeste 0 -- -- 78
2019-07-29 20:00:00 24.6 22 Oeste 35 Oeste 0 -- -- 77
2019-07-29 19:00:00 25.2 22 Oeste 36 Sudoeste 0 -- -- 75
2019-07-29 18:00:00 25.8 22 Oeste 33 Oeste 0 -- -- 72
2019-07-29 17:00:00 26.7 21 Oeste 28 Oeste 0 -- -- 69
2019-07-29 16:00:00 27 19 Oeste 26 Oeste 0 -- -- 66
2019-07-29 15:00:00 26.9 15 Oeste 21 Oeste 0 -- -- 62
2019-07-29 14:00:00 26 15 Oeste 22 Oeste 0 -- -- 54
2019-07-29 13:00:00 24.6 15 Oeste 20 Oeste 0 -- -- 60
2019-07-29 12:00:00 23.8 11 Oeste 19 Oeste 0 -- -- 66
2019-07-29 11:00:00 23.5 5 Noroeste 13 Noroeste 0 -- -- 63
2019-07-29 10:00:00 22.3 9 Noroeste 17 Noroeste 0 -- -- 71
2019-07-29 09:00:00 21.5 11 Noroeste 18 Oeste 0 -- -- 73
2019-07-29 08:00:00 20.5 8 Noroeste 15 Oeste 0 -- -- 80
2019-07-29 07:00:00 20.2 9 Oeste 15 Oeste 0 -- -- 85
2019-07-29 06:00:00 19.6 3 Sur 8 Sur 0 -- -- 93
2019-07-29 05:00:00 20.5 7 Sur 12 Sur 0 -- -- 94
2019-07-29 04:00:00 20.9 6 Sur 14 Sur 0 -- -- 93
2019-07-29 03:00:00 20.7 6 Sur 12 Sur 0 -- -- 92
2019-07-29 02:00:00 20.2 5 Sur 9 Sudeste 0 -- -- 91
2019-07-29 01:00:00 20.4 8 Sudeste 10 Sur 0 -- -- 89
2019-07-29 00:00:00 20.9 4 Sur 10 Sur 0 -- -- 86
2019-07-28 23:00:00 21.5 5 Sudoeste 14 Sudoeste 0 -- -- 83
2019-07-28 22:00:00 21.8 9 Sudoeste 21 Oeste 0 -- -- 79
2019-07-28 21:00:00 22.4 15 Sudoeste 25 Oeste 0 -- -- 78
2019-07-28 20:00:00 23.3 17 Sudoeste 31 Sudoeste 0 -- -- 78
2019-07-28 19:00:00 24.2 19 Sudoeste 30 Sudoeste 0 -- -- 72
2019-07-28 18:00:00 24.4 18 Sudoeste 29 Sudoeste 0 -- -- 72
2019-07-28 17:00:00 24.3 21 Oeste 33 Sudoeste 0 -- -- 71
2019-07-28 16:00:00 24.6 16 Sudoeste 26 Sudoeste 0 -- -- 71
2019-07-28 15:00:00 23.8 17 Oeste 29 Sudoeste 0 -- -- 75
2019-07-28 14:00:00 24.1 13 Sudoeste 23 Sudoeste 0 -- -- 72
2019-07-28 13:00:00 22.9 14 Oeste 21 Oeste 0 -- -- 76
2019-07-28 12:00:00 22 9 Oeste 19 Oeste 0 -- -- 81
2019-07-28 11:00:00 21.6 11 Oeste 18 Oeste 0 -- -- 83
2019-07-28 10:00:00 21 10 Oeste 15 Oeste 0 -- -- 84
2019-07-28 09:00:00 20.5 9 Oeste 15 Noroeste 0 -- -- 86
2019-07-28 08:00:00 19.4 8 Oeste 15 Oeste 0 -- -- 88
2019-07-28 07:00:00 19.4 8 Oeste 14 Oeste 0 -- -- 88
2019-07-28 06:00:00 19.6 8 Oeste 15 Oeste 0 -- -- 86
2019-07-28 05:00:00 20.1 10 Oeste 17 Oeste 0 -- -- 84
2019-07-28 04:00:00 20.5 11 Oeste 21 Oeste 0 -- -- 82
2019-07-28 03:00:00 21 13 Oeste 23 Oeste 0 -- -- 82
2019-07-28 02:00:00 21.1 15 Oeste 28 Sudoeste 0 -- -- 86
2019-07-28 01:00:00 21.3 18 Sudoeste 31 Sudoeste 0 -- -- 85
2019-07-28 00:00:00 21.6 21 Sudoeste 36 Sudoeste 0 -- -- 83
2019-07-27 23:00:00 21.9 21 Sudoeste 37 Sudoeste 0 -- -- 82
2019-07-26 12:00:00 -- -- -- -- -- -- -- -- --
2019-07-26 11:00:00 22.9 17 Oeste 26 Oeste 0 -- -- 71
2019-07-26 10:00:00 22.8 17 Oeste 24 Oeste 0 -- -- 74
2019-07-26 09:00:00 22.5 13 Noroeste 22 Oeste 0 -- -- 80
2019-07-26 08:00:00 22.3 12 Noroeste 24 Oeste 0 -- -- 84
2019-07-26 07:00:00 22.5 15 Oeste 23 Oeste 0 -- -- 86
2019-07-26 06:00:00 22.9 13 Oeste 24 Oeste 0 -- -- 87
2019-07-26 05:00:00 20.8 4 Sudeste 9 Sudeste 0 -- -- 96
2019-07-26 04:00:00 21.1 4 Sudeste 10 Sudeste 0 -- -- 95
2019-07-26 03:00:00 21.6 5 Sudeste 9 Sudeste 0 -- -- 94
2019-07-26 02:00:00 21.8 6 Sur 13 Sur 0 -- -- 93
2019-07-26 01:00:00 22.3 8 Sur 17 Sudoeste 0 -- -- 91
2019-07-26 00:00:00 22.5 8 Sur 16 Sur 0 -- -- 88
2019-07-25 23:00:00 23.3 9 Sudoeste 15 Sudoeste 0 -- -- 83
2019-07-25 22:00:00 23.5 13 Sudoeste 25 Sudoeste 0 -- -- 82
2019-07-25 21:00:00 24.4 16 Sudoeste 27 Sudoeste 0 -- -- 80
2019-07-25 20:00:00 25 14 Sudoeste 31 Sudoeste 0 -- -- 81
2019-07-25 19:00:00 25.5 18 Sudoeste 31 Sudoeste 0 -- -- 80
2019-07-25 18:00:00 27.3 15 Sudoeste 26 Sudoeste 0 -- -- 73
2019-07-25 17:00:00 27.8 13 Sudoeste 25 Sudoeste 0 -- -- 73
2019-07-25 16:00:00 27.7 12 Sudoeste 24 Sudoeste 0 -- -- 71
2019-07-25 15:00:00 27.1 14 Sudoeste 28 Sudoeste 0 -- -- 75
2019-07-25 14:00:00 26.8 13 Sudoeste 26 Sudoeste 0 -- -- 75
2019-07-25 13:00:00 25.8 18 Sudoeste 27 Sudoeste 0 -- -- 79
2019-07-25 12:00:00 23.7 14 Sur 24 Sur 0 -- -- 91
2019-07-25 11:00:00 22.7 11 Sur 21 Sur 0 -- -- 96
2019-07-25 10:00:00 22.3 9 Sur 15 Sur 0 -- -- 99
2019-07-25 09:00:00 21.9 7 Sudeste 12 Sudeste 0 -- -- 100
2019-07-25 08:00:00 20.9 8 Sudeste 15 Sudeste 0 -- -- 99
2019-07-25 07:00:00 20.5 7 Sudeste 11 Sudeste 0 -- -- 98
2019-07-25 06:00:00 20.4 6 Este 9 Este 0 -- -- 97
2019-07-25 05:00:00 20.1 4 Sudeste 8 Este 0 -- -- 96
2019-07-25 04:00:00 20.6 4 Sudeste 8 Este 0 -- -- 96
2019-07-25 03:00:00 20.9 4 Este 9 Oeste 0 -- -- 95
2019-07-25 02:00:00 21.5 4 Sur 6 Sudeste 0 -- -- 93
2019-07-25 01:00:00 23 2 Oeste 10 Oeste 0 -- -- 92
2019-07-25 00:00:00 23.4 7 Oeste 12 Oeste 0 -- -- 92
2019-07-24 23:00:00 23.8 9 Oeste 13 Oeste 0 -- -- 92
2019-07-24 22:00:00 24.2 9 Oeste 17 Oeste 0 -- -- 90
2019-07-24 21:00:00 25.4 12 Oeste 18 Oeste 0 -- -- 86
2019-07-24 20:00:00 26.2 13 Oeste 21 Oeste 0 -- -- 83
2019-07-24 19:00:00 26.1 15 Oeste 24 Oeste 0 -- -- 83
2019-07-24 18:00:00 26.5 17 Oeste 24 Oeste 0 -- -- 81
2019-07-24 17:00:00 27.1 17 Oeste 25 Oeste 0 -- -- 78
2019-07-24 16:00:00 28.1 14 Sudoeste 22 Sudoeste 0 -- -- 74
2019-07-24 15:00:00 27.1 17 Oeste 23 Oeste 0 -- -- 78
2019-07-24 14:00:00 27 16 Oeste 22 Oeste 0 -- -- 77
2019-07-24 13:00:00 25.8 12 Oeste 21 Oeste 0 -- -- 81
2019-07-24 12:00:00 27.2 13 Oeste 21 Oeste 0 -- -- 77
2019-07-24 11:00:00 26.1 9 Oeste 18 Oeste 0 -- -- 80
2019-07-24 10:00:00 26.3 6 Sur 15 Sudeste 0 -- -- 80
2019-07-24 09:00:00 24.3 10 Sudeste 18 Sudeste 0 -- -- 88
2019-07-24 08:00:00 21.9 6 Sur 11 Sudeste 0 -- -- 96
2019-07-24 07:00:00 21.6 5 Sudeste 12 Sudeste 0 -- -- 95
2019-07-24 06:00:00 21.7 5 Sudeste 11 Sur 0 -- -- 95
2019-07-24 05:00:00 21.4 3 Sudeste 9 Este 0 -- -- 96
2019-07-24 04:00:00 21.5 3 Este 6 Sudeste 0 -- -- 95
2019-07-24 03:00:00 21.9 3 Sudeste 5 Sudeste 0 -- -- 95
2019-07-24 02:00:00 22.4 0 Calma 6 Este 0 -- -- 95
2019-07-24 01:00:00 22.9 0 Calma 5 Sur 0 -- -- 93
2019-07-24 00:00:00 23.6 2 Sudoeste 6 Oeste 0 -- -- 93
2019-07-23 23:00:00 24.2 6 Oeste 17 Oeste 0 -- -- 92
2019-07-23 22:00:00 24.3 12 Oeste 20 Oeste 0 -- -- 90
2019-07-23 21:00:00 24.9 14 Oeste 22 Oeste 0 -- -- 88
2019-07-23 20:00:00 25.8 13 Oeste 22 Oeste 0 -- -- 85
2019-07-23 19:00:00 26.5 14 Oeste 25 Oeste 0 -- -- 81
2019-07-23 18:00:00 27.1 18 Oeste 26 Oeste 0 -- -- 79
2019-07-23 17:00:00 27.9 15 Sudoeste 33 Sudoeste 0 -- -- 74
2019-07-23 16:00:00 28.4 15 Sudoeste 28 Sudoeste 0 -- -- 73
2019-07-23 15:00:00 27.9 18 Oeste 26 Oeste 0 -- -- 77
2019-07-23 14:00:00 27.8 13 Sudoeste 24 Oeste 0 -- -- 75
2019-07-23 13:00:00 27.8 18 Oeste 22 Oeste 0 -- -- 77
2019-07-23 12:00:00 28.1 14 Oeste 21 Oeste 0 -- -- 74
2019-07-23 11:00:00 29.1 9 Este 20 Este 0 -- -- 65
2019-07-23 10:00:00 27.3 14 Este 20 Este 0 -- -- 73
2019-07-23 09:00:00 25.1 4 Este 8 Este 0 -- -- 81
2019-07-23 08:00:00 23 3 Nordeste 12 Nordeste 0 -- -- 87
2019-07-23 07:00:00 23.2 6 Este 13 Este 0 -- -- 87
2019-07-23 06:00:00 23.2 7 Nordeste 16 Este 0 -- -- 85
2019-07-23 05:00:00 23.8 10 Este 15 Este 0 -- -- 81
2019-07-23 04:00:00 24.6 9 Este 13 Este 0 -- -- 79
2019-07-23 03:00:00 24.9 7 Este 17 Sudeste 0 -- -- 79
2019-07-23 02:00:00 25.2 6 Sudeste 18 Sudeste 0 -- -- 78
2019-07-23 01:00:00 25.4 9 Sudeste 21 Este 0 -- -- 77
2019-07-23 00:00:00 26.1 13 Sudeste 26 Este 0 -- -- 75
2019-07-22 23:00:00 26.7 11 Sudeste 17 Sudeste 0 -- -- 71
2019-07-22 22:00:00 25.9 0 Calma 16 Sudoeste 0 -- -- 78
2019-07-22 21:00:00 26.2 10 Oeste 26 Sudoeste 0 -- -- 80
2019-07-22 20:00:00 27.1 19 Sudoeste 27 Sudoeste 0 -- -- 76
2019-07-22 19:00:00 27.8 16 Oeste 28 Sudoeste 0 -- -- 76
2019-07-22 18:00:00 29.1 15 Oeste 29 Oeste 0 -- -- 72
2019-07-22 17:00:00 30.2 19 Oeste 34 Oeste 0 -- -- 63
2019-07-22 16:00:00 35.6 15 Sudeste 32 Sudeste 0 -- -- 44
2019-07-22 15:00:00 34 14 Sudeste 28 Sudeste 0 -- -- 50
2019-07-22 14:00:00 33.8 13 Este 30 Este 0 -- -- 51
2019-07-22 13:00:00 32.6 18 Este 32 Sudeste 0 -- -- 55
2019-07-22 12:00:00 31.3 17 Sudeste 32 Sudeste 0 -- -- 59
2019-07-22 11:00:00 29.5 10 Sudeste 24 Este 0 -- -- 67
2019-07-22 10:00:00 27.1 11 Nordeste 19 Nordeste 0 -- -- 72
2019-07-22 09:00:00 24.2 5 Nordeste 9 Nordeste 0 -- -- 80
2019-07-22 08:00:00 21.9 4 Este 11 Nordeste 0 -- -- 89
2019-07-22 07:00:00 22.4 8 Nordeste 18 Nordeste 0 -- -- 87
2019-07-22 06:00:00 23.1 5 Este 9 Nordeste 0 -- -- 90
2019-07-22 05:00:00 22.7 4 Nordeste 11 Este 0 -- -- 90
2019-07-22 04:00:00 22.3 4 Este 7 Sudeste 0 -- -- 91
2019-07-22 03:00:00 22.9 3 Sur 6 Sudoeste 0 -- -- 89
2019-07-22 02:00:00 23.6 4 Sudoeste 9 Sur 0 -- -- 87
2019-07-22 01:00:00 23.6 6 Sur 11 Sur 0 -- -- 85
2019-07-22 00:00:00 23.4 4 Sur 10 Sur 0 -- -- 87